Terminal Aerodrome Forecast
Issued by NWS

Home | Current Version | Previous Version | Text Only | Print | Product List | Glossary On
Versions: 1 2 3 4 5 6 7 8 9 10 11 12 13 14 15 16 17 18 19 20 21 22 23 24 25 26 27 28 29 30 31 32 33 34 35
000
FTUS46 KPDT 011700
TAFRDM
TAF
KRDM 011735Z 0118/0218 16003KT 6SM BR SCT005 OVC040
      TEMPO 0118/0119 OVC003
     FM012000 24006KT 6SM -SHRA BR BKN035 OVC050
     FM020500 16004KT P6SM SCT025
     FM021000 16005KT 6SM BR FEW003 SCT020
     FM021500 18008KT 2SM -RA BR BKN010 OVC020=

USA.gov is the U.S. government's official web portal to all federal, state and local government web resources and services.